sensor_id;sensor_type;location;lat;lon;timestamp;temperature;humidity
25300;DHT22;13241;51.208;4.432;2022-08-03T00:01:52;22.60;99.90
25300;DHT22;13241;51.208;4.432;2022-08-03T00:04:19;22.60;99.90
25300;DHT22;13241;51.208;4.432;2022-08-03T00:06:45;22.50;99.90
25300;DHT22;13241;51.208;4.432;2022-08-03T00:09:12;22.60;99.90
25300;DHT22;13241;51.208;4.432;2022-08-03T00:11:39;22.60;99.90
25300;DHT22;13241;51.208;4.432;2022-08-03T00:14:07;22.50;99.90
25300;DHT22;13241;51.208;4.432;2022-08-03T00:16:34;22.40;99.90
25300;DHT22;13241;51.208;4.432;2022-08-03T00:19:02;22.40;99.90
25300;DHT22;13241;51.208;4.432;2022-08-03T00:21:29;22.30;99.90
25300;DHT22;13241;51.208;4.432;2022-08-03T00:23:56;22.40;99.90
25300;DHT22;13241;51.208;4.432;2022-08-03T00:26:23;22.40;99.90
25300;DHT22;13241;51.208;4.432;2022-08-03T00:28:50;22.30;99.90
25300;DHT22;13241;51.208;4.432;2022-08-03T00:31:17;22.30;99.90
25300;DHT22;13241;51.208;4.432;2022-08-03T00:34:04;22.30;99.90
25300;DHT22;13241;51.208;4.432;2022-08-03T00:36:32;22.30;99.90
25300;DHT22;13241;51.208;4.432;2022-08-03T00:38:59;22.30;99.90
25300;DHT22;13241;51.208;4.432;2022-08-03T00:41:26;22.30;99.90
25300;DHT22;13241;51.208;4.432;2022-08-03T00:43:53;22.40;99.90
25300;DHT22;13241;51.208;4.432;2022-08-03T00:46:20;22.20;99.90
25300;DHT22;13241;51.208;4.432;2022-08-03T00:48:50;22.20;99.90
25300;DHT22;13241;51.208;4.432;2022-08-03T00:51:18;22.10;99.90
25300;DHT22;13241;51.208;4.432;2022-08-03T00:53:45;22.00;99.90
25300;DHT22;13241;51.208;4.432;2022-08-03T00:56:14;22.00;99.90
25300;DHT22;13241;51.208;4.432;2022-08-03T00:58:44;22.00;99.90
25300;DHT22;13241;51.208;4.432;2022-08-03T01:01:11;22.00;99.90
25300;DHT22;13241;51.208;4.432;2022-08-03T01:03:39;21.90;99.90
25300;DHT22;13241;51.208;4.432;2022-08-03T01:06:24;22.00;99.90
25300;DHT22;13241;51.208;4.432;2022-08-03T01:09:06;21.90;99.90
25300;DHT22;13241;51.208;4.432;2022-08-03T01:14:37;21.90;99.90
25300;DHT22;13241;51.208;4.432;2022-08-03T01:17:13;21.80;99.90
25300;DHT22;13241;51.208;4.432;2022-08-03T01:20:07;21.70;99.90
25300;DHT22;13241;51.208;4.432;2022-08-03T01:30:37;21.70;99.90
25300;DHT22;13241;51.208;4.432;2022-08-03T01:33:09;21.80;99.90
25300;DHT22;13241;51.208;4.432;2022-08-03T01:35:45;21.80;99.90
25300;DHT22;13241;51.208;4.432;2022-08-03T01:38:16;21.70;99.90
25300;DHT22;13241;51.208;4.432;2022-08-03T01:40:45;21.60;99.90
25300;DHT22;13241;51.208;4.432;2022-08-03T01:43:16;21.60;99.90
25300;DHT22;13241;51.208;4.432;2022-08-03T01:46:06;21.60;99.90
25300;DHT22;13241;51.208;4.432;2022-08-03T01:48:36;21.60;99.90
25300;DHT22;13241;51.208;4.432;2022-08-03T01:51:08;21.70;99.90
25300;DHT22;13241;51.208;4.432;2022-08-03T01:53:37;21.60;99.90
25300;DHT22;13241;51.208;4.432;2022-08-03T01:56:06;21.50;99.90
25300;DHT22;13241;51.208;4.432;2022-08-03T01:58:34;21.50;99.90
25300;DHT22;13241;51.208;4.432;2022-08-03T02:01:04;21.60;99.90
25300;DHT22;13241;51.208;4.432;2022-08-03T02:03:35;21.50;99.90
25300;DHT22;13241;51.208;4.432;2022-08-03T02:06:25;21.50;99.90
25300;DHT22;13241;51.208;4.432;2022-08-03T02:09:14;21.40;99.90
25300;DHT22;13241;51.208;4.432;2022-08-03T02:11:42;21.40;99.90
25300;DHT22;13241;51.208;4.432;2022-08-03T02:14:09;21.40;99.90
25300;DHT22;13241;51.208;4.432;2022-08-03T02:16:37;21.40;99.90
25300;DHT22;13241;51.208;4.432;2022-08-03T02:19:05;21.40;99.90
25300;DHT22;13241;51.208;4.432;2022-08-03T02:21:35;21.40;99.90
25300;DHT22;13241;51.208;4.432;2022-08-03T02:24:22;21.20;99.90
25300;DHT22;13241;51.208;4.432;2022-08-03T02:26:51;21.30;99.90
25300;DHT22;13241;51.208;4.432;2022-08-03T02:29:20;21.20;99.90
25300;DHT22;13241;51.208;4.432;2022-08-03T02:32:11;21.30;99.90
25300;DHT22;13241;51.208;4.432;2022-08-03T02:34:41;21.10;99.90
25300;DHT22;13241;51.208;4.432;2022-08-03T02:37:10;21.20;99.90
25300;DHT22;13241;51.208;4.432;2022-08-03T02:39:40;21.10;99.90
25300;DHT22;13241;51.208;4.432;2022-08-03T02:42:09;21.10;99.90
25300;DHT22;13241;51.208;4.432;2022-08-03T02:44:39;21.10;99.90
25300;DHT22;13241;51.208;4.432;2022-08-03T02:47:10;21.10;99.90
25300;DHT22;13241;51.208;4.432;2022-08-03T02:49:38;21.00;99.90
25300;DHT22;13241;51.208;4.432;2022-08-03T02:52:20;21.20;99.90
25300;DHT22;13241;51.208;4.432;2022-08-03T02:54:52;21.00;99.90
25300;DHT22;13241;51.208;4.432;2022-08-03T02:57:20;21.00;99.90
25300;DHT22;13241;51.208;4.432;2022-08-03T02:59:49;21.00;99.90
25300;DHT22;13241;51.208;4.432;2022-08-03T03:02:17;21.00;99.90
25300;DHT22;13241;51.208;4.432;2022-08-03T03:04:46;21.00;99.90
25300;DHT22;13241;51.208;4.432;2022-08-03T03:07:35;21.00;99.90
25300;DHT22;13241;51.208;4.432;2022-08-03T03:10:20;20.90;99.90
25300;DHT22;13241;51.208;4.432;2022-08-03T03:12:50;20.80;99.90
25300;DHT22;13241;51.208;4.432;2022-08-03T03:15:18;20.80;99.90
25300;DHT22;13241;51.208;4.432;2022-08-03T03:17:47;20.80;99.90
25300;DHT22;13241;51.208;4.432;2022-08-03T03:20:16;20.80;99.90
25300;DHT22;13241;51.208;4.432;2022-08-03T03:22:58;20.80;99.90
25300;DHT22;13241;51.208;4.432;2022-08-03T03:25:27;20.80;99.90
25300;DHT22;13241;51.208;4.432;2022-08-03T03:27:54;20.80;99.90
25300;DHT22;13241;51.208;4.432;2022-08-03T03:30:23;20.80;99.90
25300;DHT22;13241;51.208;4.432;2022-08-03T03:32:52;20.70;99.90
25300;DHT22;13241;51.208;4.432;2022-08-03T03:35:19;20.80;99.90
25300;DHT22;13241;51.208;4.432;2022-08-03T03:37:46;20.70;99.90
25300;DHT22;13241;51.208;4.432;2022-08-03T03:40:13;20.70;99.90
25300;DHT22;13241;51.208;4.432;2022-08-03T03:42:40;20.70;99.90
25300;DHT22;13241;51.208;4.432;2022-08-03T03:45:08;20.70;99.90
25300;DHT22;13241;51.208;4.432;2022-08-03T03:47:35;20.60;99.90
25300;DHT22;13241;51.208;4.432;2022-08-03T03:50:05;20.60;99.90
25300;DHT22;13241;51.208;4.432;2022-08-03T03:52:34;20.60;99.90
25300;DHT22;13241;51.208;4.432;2022-08-03T03:55:02;20.60;99.90
25300;DHT22;13241;51.208;4.432;2022-08-03T03:57:33;20.60;99.90
25300;DHT22;13241;51.208;4.432;2022-08-03T04:00:00;20.60;99.90
25300;DHT22;13241;51.208;4.432;2022-08-03T04:02:27;20.60;99.90
25300;DHT22;13241;51.208;4.432;2022-08-03T04:04:53;20.50;99.90
25300;DHT22;13241;51.208;4.432;2022-08-03T04:08:04;20.60;99.90
25300;DHT22;13241;51.208;4.432;2022-08-03T04:14:05;20.60;99.90
25300;DHT22;13241;51.208;4.432;2022-08-03T04:16:36;20.60;99.90
25300;DHT22;13241;51.208;4.432;2022-08-03T04:19:36;20.60;99.90
25300;DHT22;13241;51.208;4.432;2022-08-03T04:22:11;20.60;99.90
25300;DHT22;13241;51.208;4.432;2022-08-03T04:24:48;20.60;99.90
25300;DHT22;13241;51.208;4.432;2022-08-03T04:27:20;20.60;99.90
25300;DHT22;13241;51.208;4.432;2022-08-03T04:29:51;20.60;99.90
25300;DHT22;13241;51.208;4.432;2022-08-03T04:32:20;20.60;99.90
25300;DHT22;13241;51.208;4.432;2022-08-03T04:34:51;20.60;99.90
25300;DHT22;13241;51.208;4.432;2022-08-03T04:39:50;20.60;99.90
25300;DHT22;13241;51.208;4.432;2022-08-03T04:42:23;20.60;99.90
25300;DHT22;13241;51.208;4.432;2022-08-03T04:44:51;20.60;99.90
25300;DHT22;13241;51.208;4.432;2022-08-03T04:47:26;20.60;99.90
25300;DHT22;13241;51.208;4.432;2022-08-03T04:49:53;20.60;99.90
25300;DHT22;13241;51.208;4.432;2022-08-03T04:52:20;20.70;99.90
25300;DHT22;13241;51.208;4.432;2022-08-03T04:54:47;20.70;99.90
25300;DHT22;13241;51.208;4.432;2022-08-03T04:57:17;20.80;99.90
25300;DHT22;13241;51.208;4.432;2022-08-03T04:59:52;20.80;99.90
25300;DHT22;13241;51.208;4.432;2022-08-03T05:02:30;20.80;99.90
25300;DHT22;13241;51.208;4.432;2022-08-03T05:04:58;20.80;99.90
25300;DHT22;13241;51.208;4.432;2022-08-03T05:07:25;20.90;99.90
25300;DHT22;13241;51.208;4.432;2022-08-03T05:10:02;20.90;99.90
25300;DHT22;13241;51.208;4.432;2022-08-03T05:12:30;20.90;99.90
25300;DHT22;13241;51.208;4.432;2022-08-03T05:14:59;21.00;99.90
25300;DHT22;13241;51.208;4.432;2022-08-03T05:17:27;21.00;99.90
25300;DHT22;13241;51.208;4.432;2022-08-03T05:19:54;21.00;99.90
25300;DHT22;13241;51.208;4.432;2022-08-03T05:22:22;21.10;99.90
25300;DHT22;13241;51.208;4.432;2022-08-03T05:24:49;21.20;99.90
25300;DHT22;13241;51.208;4.432;2022-08-03T05:27:16;21.40;99.90
25300;DHT22;13241;51.208;4.432;2022-08-03T05:29:45;21.50;99.90
25300;DHT22;13241;51.208;4.432;2022-08-03T05:32:12;21.50;99.90
25300;DHT22;13241;51.208;4.432;2022-08-03T05:34:39;21.60;99.90
25300;DHT22;13241;51.208;4.432;2022-08-03T05:37:06;21.60;99.90
25300;DHT22;13241;51.208;4.432;2022-08-03T05:39:33;21.70;99.90
25300;DHT22;13241;51.208;4.432;2022-08-03T05:42:01;21.80;99.90
25300;DHT22;13241;51.208;4.432;2022-08-03T05:44:29;21.80;99.90
25300;DHT22;13241;51.208;4.432;2022-08-03T05:46:57;21.90;99.90
25300;DHT22;13241;51.208;4.432;2022-08-03T05:49:24;22.10;99.90
25300;DHT22;13241;51.208;4.432;2022-08-03T05:51:51;22.30;99.90
25300;DHT22;13241;51.208;4.432;2022-08-03T05:54:34;22.20;99.90
25300;DHT22;13241;51.208;4.432;2022-08-03T05:57:21;22.30;99.90
25300;DHT22;13241;51.208;4.432;2022-08-03T05:59:47;22.40;99.90
25300;DHT22;13241;51.208;4.432;2022-08-03T06:02:25;22.40;99.90
25300;DHT22;13241;51.208;4.432;2022-08-03T06:04:52;22.50;99.90
25300;DHT22;13241;51.208;4.432;2022-08-03T06:07:19;22.60;99.90
25300;DHT22;13241;51.208;4.432;2022-08-03T06:09:46;22.70;99.90
25300;DHT22;13241;51.208;4.432;2022-08-03T06:12:33;22.80;99.90
25300;DHT22;13241;51.208;4.432;2022-08-03T06:15:03;22.90;99.90
25300;DHT22;13241;51.208;4.432;2022-08-03T06:17:30;23.00;99.90
25300;DHT22;13241;51.208;4.432;2022-08-03T06:20:04;23.20;99.90
25300;DHT22;13241;51.208;4.432;2022-08-03T06:22:31;23.20;99.90
25300;DHT22;13241;51.208;4.432;2022-08-03T06:24:58;23.30;99.90
25300;DHT22;13241;51.208;4.432;2022-08-03T06:27:32;23.40;99.90
25300;DHT22;13241;51.208;4.432;2022-08-03T06:30:07;23.50;99.90
25300;DHT22;13241;51.208;4.432;2022-08-03T06:32:37;23.50;99.90
25300;DHT22;13241;51.208;4.432;2022-08-03T06:35:06;23.50;99.90
25300;DHT22;13241;51.208;4.432;2022-08-03T06:37:47;23.60;99.90
25300;DHT22;13241;51.208;4.432;2022-08-03T06:40:20;23.70;99.90
25300;DHT22;13241;51.208;4.432;2022-08-03T06:42:55;23.80;99.90
25300;DHT22;13241;51.208;4.432;2022-08-03T06:45:22;23.90;99.90
25300;DHT22;13241;51.208;4.432;2022-08-03T06:48:08;24.00;99.90
25300;DHT22;13241;51.208;4.432;2022-08-03T06:50:36;24.20;99.90
25300;DHT22;13241;51.208;4.432;2022-08-03T06:53:04;24.40;99.90
25300;DHT22;13241;51.208;4.432;2022-08-03T06:55:31;24.60;99.90
25300;DHT22;13241;51.208;4.432;2022-08-03T06:57:58;24.70;99.90
25300;DHT22;13241;51.208;4.432;2022-08-03T07:00:29;24.80;99.90
25300;DHT22;13241;51.208;4.432;2022-08-03T07:02:56;24.90;99.90
25300;DHT22;13241;51.208;4.432;2022-08-03T07:05:24;25.00;99.90
25300;DHT22;13241;51.208;4.432;2022-08-03T07:07:54;25.10;99.90
25300;DHT22;13241;51.208;4.432;2022-08-03T07:10:22;25.10;99.90
25300;DHT22;13241;51.208;4.432;2022-08-03T07:12:49;25.10;99.90
25300;DHT22;13241;51.208;4.432;2022-08-03T07:15:23;25.30;99.90
25300;DHT22;13241;51.208;4.432;2022-08-03T07:18:10;25.50;99.90
25300;DHT22;13241;51.208;4.432;2022-08-03T07:20:37;25.60;99.90
25300;DHT22;13241;51.208;4.432;2022-08-03T07:23:04;25.70;99.90
25300;DHT22;13241;51.208;4.432;2022-08-03T07:25:31;25.80;99.90
25300;DHT22;13241;51.208;4.432;2022-08-03T07:27:58;25.90;99.90
25300;DHT22;13241;51.208;4.432;2022-08-03T07:30:25;26.00;99.90
25300;DHT22;13241;51.208;4.432;2022-08-03T07:32:51;26.00;99.90
25300;DHT22;13241;51.208;4.432;2022-08-03T07:35:18;26.00;99.90
25300;DHT22;13241;51.208;4.432;2022-08-03T07:37:52;26.00;99.90
25300;DHT22;13241;51.208;4.432;2022-08-03T07:40:21;26.30;99.90
25300;DHT22;13241;51.208;4.432;2022-08-03T07:42:53;26.40;99.90
25300;DHT22;13241;51.208;4.432;2022-08-03T07:45:20;26.50;99.90
25300;DHT22;13241;51.208;4.432;2022-08-03T07:47:49;26.50;99.90
25300;DHT22;13241;51.208;4.432;2022-08-03T07:50:19;26.60;99.90
25300;DHT22;13241;51.208;4.432;2022-08-03T07:52:47;26.80;99.90
25300;DHT22;13241;51.208;4.432;2022-08-03T07:55:18;26.90;99.90
25300;DHT22;13241;51.208;4.432;2022-08-03T07:57:46;27.10;99.90
25300;DHT22;13241;51.208;4.432;2022-08-03T08:00:15;27.30;99.90
25300;DHT22;13241;51.208;4.432;2022-08-03T08:02:43;27.50;99.90
25300;DHT22;13241;51.208;4.432;2022-08-03T08:05:12;27.70;99.90
25300;DHT22;13241;51.208;4.432;2022-08-03T08:07:39;27.90;99.90
25300;DHT22;13241;51.208;4.432;2022-08-03T08:10:07;27.90;99.90
25300;DHT22;13241;51.208;4.432;2022-08-03T08:12:36;28.00;99.90
25300;DHT22;13241;51.208;4.432;2022-08-03T08:15:04;28.10;99.90
25300;DHT22;13241;51.208;4.432;2022-08-03T08:17:40;28.00;99.90
25300;DHT22;13241;51.208;4.432;2022-08-03T08:20:09;28.10;99.90
25300;DHT22;13241;51.208;4.432;2022-08-03T08:22:36;28.20;99.90
25300;DHT22;13241;51.208;4.432;2022-08-03T08:25:05;28.20;99.90
25300;DHT22;13241;51.208;4.432;2022-08-03T08:27:32;28.30;99.90
25300;DHT22;13241;51.208;4.432;2022-08-03T08:30:20;28.30;99.90
25300;DHT22;13241;51.208;4.432;2022-08-03T08:32:48;28.60;99.90
25300;DHT22;13241;51.208;4.432;2022-08-03T08:35:16;28.60;99.90
25300;DHT22;13241;51.208;4.432;2022-08-03T08:37:43;28.60;99.90
25300;DHT22;13241;51.208;4.432;2022-08-03T08:40:19;28.80;99.90
25300;DHT22;13241;51.208;4.432;2022-08-03T08:42:46;28.90;99.90
25300;DHT22;13241;51.208;4.432;2022-08-03T08:45:24;29.20;99.90
25300;DHT22;13241;51.208;4.432;2022-08-03T08:47:54;29.30;99.90
25300;DHT22;13241;51.208;4.432;2022-08-03T08:50:29;29.40;99.90
25300;DHT22;13241;51.208;4.432;2022-08-03T08:53:00;29.30;99.90
25300;DHT22;13241;51.208;4.432;2022-08-03T08:55:28;29.30;99.90
25300;DHT22;13241;51.208;4.432;2022-08-03T08:58:16;29.40;99.90
25300;DHT22;13241;51.208;4.432;2022-08-03T09:00:46;29.50;99.90
25300;DHT22;13241;51.208;4.432;2022-08-03T09:03:14;29.60;99.90
25300;DHT22;13241;51.208;4.432;2022-08-03T09:05:55;29.80;99.90
25300;DHT22;13241;51.208;4.432;2022-08-03T09:08:22;29.80;99.90
25300;DHT22;13241;51.208;4.432;2022-08-03T09:10:49;29.80;99.90
25300;DHT22;13241;51.208;4.432;2022-08-03T09:13:15;29.80;99.90
25300;DHT22;13241;51.208;4.432;2022-08-03T09:15:42;30.00;99.90
25300;DHT22;13241;51.208;4.432;2022-08-03T09:18:29;30.10;99.90
25300;DHT22;13241;51.208;4.432;2022-08-03T09:23:59;30.30;99.90
25300;DHT22;13241;51.208;4.432;2022-08-03T09:26:30;30.40;99.90
25300;DHT22;13241;51.208;4.432;2022-08-03T09:29:03;30.50;99.90
25300;DHT22;13241;51.208;4.432;2022-08-03T09:31:43;30.50;99.90
25300;DHT22;13241;51.208;4.432;2022-08-03T09:34:13;30.50;99.90
25300;DHT22;13241;51.208;4.432;2022-08-03T09:39:11;30.60;99.90
25300;DHT22;13241;51.208;4.432;2022-08-03T09:41:41;30.60;99.90
25300;DHT22;13241;51.208;4.432;2022-08-03T09:44:08;30.60;99.90
25300;DHT22;13241;51.208;4.432;2022-08-03T09:46:53;30.60;99.90
25300;DHT22;13241;51.208;4.432;2022-08-03T09:49:22;30.60;99.90
25300;DHT22;13241;51.208;4.432;2022-08-03T09:51:49;30.60;99.90
25300;DHT22;13241;51.208;4.432;2022-08-03T09:54:36;30.70;99.90
25300;DHT22;13241;51.208;4.432;2022-08-03T09:57:03;30.70;99.90
25300;DHT22;13241;51.208;4.432;2022-08-03T09:59:31;30.80;99.90
25300;DHT22;13241;51.208;4.432;2022-08-03T10:01:59;30.90;99.90
25300;DHT22;13241;51.208;4.432;2022-08-03T10:04:27;31.00;99.90
25300;DHT22;13241;51.208;4.432;2022-08-03T10:07:20;30.90;99.90
25300;DHT22;13241;51.208;4.432;2022-08-03T10:09:58;30.90;99.90
25300;DHT22;13241;51.208;4.432;2022-08-03T10:12:45;31.00;99.90
25300;DHT22;13241;51.208;4.432;2022-08-03T10:15:14;31.00;99.90
25300;DHT22;13241;51.208;4.432;2022-08-03T10:18:01;31.10;99.90
25300;DHT22;13241;51.208;4.432;2022-08-03T10:20:30;31.10;99.90
25300;DHT22;13241;51.208;4.432;2022-08-03T10:22:58;31.10;99.90
25300;DHT22;13241;51.208;4.432;2022-08-03T10:25:29;31.30;99.90
25300;DHT22;13241;51.208;4.432;2022-08-03T10:28:01;31.50;99.90
25300;DHT22;13241;51.208;4.432;2022-08-03T10:30:31;31.50;99.90
25300;DHT22;13241;51.208;4.432;2022-08-03T10:33:05;31.60;99.90
25300;DHT22;13241;51.208;4.432;2022-08-03T10:35:56;31.70;99.90
25300;DHT22;13241;51.208;4.432;2022-08-03T10:38:28;31.80;99.90
25300;DHT22;13241;51.208;4.432;2022-08-03T10:40:58;31.80;99.90
25300;DHT22;13241;51.208;4.432;2022-08-03T10:43:35;31.60;99.90
25300;DHT22;13241;51.208;4.432;2022-08-03T10:46:05;31.60;99.90
25300;DHT22;13241;51.208;4.432;2022-08-03T10:48:33;31.60;99.90
25300;DHT22;13241;51.208;4.432;2022-08-03T10:51:01;31.60;99.90
25300;DHT22;13241;51.208;4.432;2022-08-03T10:53:37;31.60;99.90
25300;DHT22;13241;51.208;4.432;2022-08-03T10:56:04;31.60;99.90
25300;DHT22;13241;51.208;4.432;2022-08-03T10:59:11;31.80;99.90
25300;DHT22;13241;51.208;4.432;2022-08-03T11:01:54;31.90;99.90
25300;DHT22;13241;51.208;4.432;2022-08-03T11:04:27;31.90;99.90
25300;DHT22;13241;51.208;4.432;2022-08-03T11:09:46;31.80;99.90
25300;DHT22;13241;51.208;4.432;2022-08-03T11:12:29;31.70;99.90
25300;DHT22;13241;51.208;4.432;2022-08-03T11:15:06;31.80;99.90
25300;DHT22;13241;51.208;4.432;2022-08-03T11:17:36;31.90;99.90
25300;DHT22;13241;51.208;4.432;2022-08-03T11:20:57;31.90;99.90
25300;DHT22;13241;51.208;4.432;2022-08-03T11:23:44;32.00;99.90
25300;DHT22;13241;51.208;4.432;2022-08-03T11:26:31;32.10;99.90
25300;DHT22;13241;51.208;4.432;2022-08-03T11:29:25;32.10;99.90
25300;DHT22;13241;51.208;4.432;2022-08-03T11:31:52;32.20;99.90
25300;DHT22;13241;51.208;4.432;2022-08-03T11:34:20;32.10;99.90
25300;DHT22;13241;51.208;4.432;2022-08-03T11:37:18;32.20;99.90
25300;DHT22;13241;51.208;4.432;2022-08-03T11:39:53;32.10;99.90
25300;DHT22;13241;51.208;4.432;2022-08-03T11:44:55;32.30;99.90
25300;DHT22;13241;51.208;4.432;2022-08-03T11:47:25;32.30;99.90
25300;DHT22;13241;51.208;4.432;2022-08-03T11:49:54;32.30;99.90
25300;DHT22;13241;51.208;4.432;2022-08-03T11:52:38;32.30;99.90
25300;DHT22;13241;51.208;4.432;2022-08-03T11:55:10;32.30;99.90
25300;DHT22;13241;51.208;4.432;2022-08-03T11:57:38;32.50;99.90
25300;DHT22;13241;51.208;4.432;2022-08-03T12:00:30;32.50;99.90
25300;DHT22;13241;51.208;4.432;2022-08-03T12:03:00;32.30;99.90
25300;DHT22;13241;51.208;4.432;2022-08-03T12:05:47;32.40;99.90
25300;DHT22;13241;51.208;4.432;2022-08-03T12:10:55;32.50;99.90
25300;DHT22;13241;51.208;4.432;2022-08-03T12:13:23;32.30;99.90
25300;DHT22;13241;51.208;4.432;2022-08-03T12:16:24;32.30;99.90
25300;DHT22;13241;51.208;4.432;2022-08-03T12:18:58;32.30;99.90
25300;DHT22;13241;51.208;4.432;2022-08-03T12:21:25;32.40;99.90
25300;DHT22;13241;51.208;4.432;2022-08-03T12:23:56;32.40;99.90
25300;DHT22;13241;51.208;4.432;2022-08-03T12:26:25;32.60;99.90
25300;DHT22;13241;51.208;4.432;2022-08-03T12:28:52;32.60;99.90
25300;DHT22;13241;51.208;4.432;2022-08-03T12:31:19;32.50;99.90
25300;DHT22;13241;51.208;4.432;2022-08-03T12:34:19;32.30;99.90
25300;DHT22;13241;51.208;4.432;2022-08-03T12:36:55;32.20;99.90
25300;DHT22;13241;51.208;4.432;2022-08-03T12:39:23;32.10;99.90
25300;DHT22;13241;51.208;4.432;2022-08-03T12:41:55;32.10;99.90
25300;DHT22;13241;51.208;4.432;2022-08-03T12:44:33;32.40;99.90
25300;DHT22;13241;51.208;4.432;2022-08-03T12:47:02;32.70;99.90
25300;DHT22;13241;51.208;4.432;2022-08-03T12:49:44;32.90;99.90
25300;DHT22;13241;51.208;4.432;2022-08-03T12:52:11;33.20;99.90
25300;DHT22;13241;51.208;4.432;2022-08-03T12:54:38;33.50;99.90
25300;DHT22;13241;51.208;4.432;2022-08-03T12:57:10;33.60;99.90
25300;DHT22;13241;51.208;4.432;2022-08-03T12:59:43;33.80;99.90
25300;DHT22;13241;51.208;4.432;2022-08-03T13:02:21;33.70;99.90
25300;DHT22;13241;51.208;4.432;2022-08-03T13:04:50;33.70;99.90
25300;DHT22;13241;51.208;4.432;2022-08-03T13:07:18;33.70;99.90
25300;DHT22;13241;51.208;4.432;2022-08-03T13:09:53;33.80;99.90
25300;DHT22;13241;51.208;4.432;2022-08-03T13:12:27;34.00;99.90
25300;DHT22;13241;51.208;4.432;2022-08-03T13:14:57;34.00;99.90
25300;DHT22;13241;51.208;4.432;2022-08-03T13:17:24;33.90;99.90
25300;DHT22;13241;51.208;4.432;2022-08-03T13:19:52;33.90;99.90
25300;DHT22;13241;51.208;4.432;2022-08-03T13:22:24;34.00;99.90
25300;DHT22;13241;51.208;4.432;2022-08-03T13:24:55;34.10;99.90
25300;DHT22;13241;51.208;4.432;2022-08-03T13:27:24;34.20;99.90
25300;DHT22;13241;51.208;4.432;2022-08-03T13:30:11;34.20;99.90
25300;DHT22;13241;51.208;4.432;2022-08-03T13:32:38;34.20;99.90
25300;DHT22;13241;51.208;4.432;2022-08-03T13:35:07;34.30;99.90
25300;DHT22;13241;51.208;4.432;2022-08-03T13:37:35;35.30;99.30
25300;DHT22;13241;51.208;4.432;2022-08-03T13:40:05;36.70;97.90
25300;DHT22;13241;51.208;4.432;2022-08-03T13:42:34;37.80;95.30
25300;DHT22;13241;51.208;4.432;2022-08-03T13:45:02;38.50;94.10
25300;DHT22;13241;51.208;4.432;2022-08-03T13:47:29;38.90;92.40
25300;DHT22;13241;51.208;4.432;2022-08-03T13:49:56;38.70;91.40
25300;DHT22;13241;51.208;4.432;2022-08-03T13:52:29;38.90;91.90
25300;DHT22;13241;51.208;4.432;2022-08-03T13:54:56;39.30;90.90
25300;DHT22;13241;51.208;4.432;2022-08-03T13:57:24;39.60;90.30
25300;DHT22;13241;51.208;4.432;2022-08-03T14:00:11;40.10;87.80
25300;DHT22;13241;51.208;4.432;2022-08-03T14:02:52;40.50;85.40
25300;DHT22;13241;51.208;4.432;2022-08-03T14:05:28;39.70;84.00
25300;DHT22;13241;51.208;4.432;2022-08-03T14:07:58;39.20;85.60
25300;DHT22;13241;51.208;4.432;2022-08-03T14:10:35;39.60;84.40
25300;DHT22;13241;51.208;4.432;2022-08-03T14:13:03;40.00;81.90
25300;DHT22;13241;51.208;4.432;2022-08-03T14:15:30;39.70;82.00
25300;DHT22;13241;51.208;4.432;2022-08-03T14:18:02;39.80;81.80
25300;DHT22;13241;51.208;4.432;2022-08-03T14:20:31;40.40;81.00
25300;DHT22;13241;51.208;4.432;2022-08-03T14:23:05;40.70;78.40
25300;DHT22;13241;51.208;4.432;2022-08-03T14:25:32;40.80;78.40
25300;DHT22;13241;51.208;4.432;2022-08-03T14:28:17;41.20;78.50
25300;DHT22;13241;51.208;4.432;2022-08-03T14:30:44;41.60;75.90
25300;DHT22;13241;51.208;4.432;2022-08-03T14:33:18;41.80;74.90
25300;DHT22;13241;51.208;4.432;2022-08-03T14:35:48;42.10;74.60
25300;DHT22;13241;51.208;4.432;2022-08-03T14:38:35;42.30;72.40
25300;DHT22;13241;51.208;4.432;2022-08-03T14:41:01;42.10;72.90
25300;DHT22;13241;51.208;4.432;2022-08-03T14:43:29;42.20;72.50
25300;DHT22;13241;51.208;4.432;2022-08-03T14:46:00;42.60;72.30
25300;DHT22;13241;51.208;4.432;2022-08-03T14:48:27;43.00;70.40
25300;DHT22;13241;51.208;4.432;2022-08-03T14:51:13;43.40;70.00
25300;DHT22;13241;51.208;4.432;2022-08-03T14:53:40;43.60;68.20
25300;DHT22;13241;51.208;4.432;2022-08-03T14:56:07;43.70;67.50
25300;DHT22;13241;51.208;4.432;2022-08-03T14:58:37;43.70;67.30
25300;DHT22;13241;51.208;4.432;2022-08-03T15:01:04;43.80;66.60
25300;DHT22;13241;51.208;4.432;2022-08-03T15:03:51;43.90;65.70
25300;DHT22;13241;51.208;4.432;2022-08-03T15:06:17;44.00;65.00
25300;DHT22;13241;51.208;4.432;2022-08-03T15:08:44;44.20;65.70
25300;DHT22;13241;51.208;4.432;2022-08-03T15:11:35;44.40;64.20
25300;DHT22;13241;51.208;4.432;2022-08-03T15:14:06;44.30;62.40
25300;DHT22;13241;51.208;4.432;2022-08-03T15:16:35;44.20;62.20
25300;DHT22;13241;51.208;4.432;2022-08-03T15:19:03;44.20;61.70
25300;DHT22;13241;51.208;4.432;2022-08-03T15:21:50;44.00;63.60
25300;DHT22;13241;51.208;4.432;2022-08-03T15:24:16;44.30;62.40
25300;DHT22;13241;51.208;4.432;2022-08-03T15:26:43;44.50;61.20
25300;DHT22;13241;51.208;4.432;2022-08-03T15:29:10;44.30;63.10
25300;DHT22;13241;51.208;4.432;2022-08-03T15:31:57;44.00;61.00
25300;DHT22;13241;51.208;4.432;2022-08-03T15:34:24;41.90;64.10
25300;DHT22;13241;51.208;4.432;2022-08-03T15:36:51;40.80;66.20
25300;DHT22;13241;51.208;4.432;2022-08-03T15:39:17;41.30;65.20
25300;DHT22;13241;51.208;4.432;2022-08-03T15:41:44;42.40;63.50
25300;DHT22;13241;51.208;4.432;2022-08-03T15:44:11;43.30;62.00
25300;DHT22;13241;51.208;4.432;2022-08-03T15:46:38;44.20;60.90
25300;DHT22;13241;51.208;4.432;2022-08-03T15:49:06;44.50;59.90
25300;DHT22;13241;51.208;4.432;2022-08-03T15:51:33;44.70;60.20
25300;DHT22;13241;51.208;4.432;2022-08-03T15:53:59;43.50;60.60
25300;DHT22;13241;51.208;4.432;2022-08-03T15:56:26;43.30;61.80
25300;DHT22;13241;51.208;4.432;2022-08-03T15:58:53;43.90;60.40
25300;DHT22;13241;51.208;4.432;2022-08-03T16:01:39;44.70;61.50
25300;DHT22;13241;51.208;4.432;2022-08-03T16:04:06;45.50;59.00
25300;DHT22;13241;51.208;4.432;2022-08-03T16:06:33;45.90;57.70
25300;DHT22;13241;51.208;4.432;2022-08-03T16:09:05;46.10;57.50
25300;DHT22;13241;51.208;4.432;2022-08-03T16:11:53;45.80;56.30
25300;DHT22;13241;51.208;4.432;2022-08-03T16:14:20;44.70;57.40
25300;DHT22;13241;51.208;4.432;2022-08-03T16:17:03;42.90;59.10
25300;DHT22;13241;51.208;4.432;2022-08-03T16:19:30;40.80;61.60
25300;DHT22;13241;51.208;4.432;2022-08-03T16:21:58;39.30;63.50
25300;DHT22;13241;51.208;4.432;2022-08-03T16:24:26;38.10;65.60
25300;DHT22;13241;51.208;4.432;2022-08-03T16:26:54;37.10;67.80
25300;DHT22;13241;51.208;4.432;2022-08-03T16:29:21;36.40;69.30
25300;DHT22;13241;51.208;4.432;2022-08-03T16:31:50;35.90;71.20